createdAt,value
2023-02-03T00:01:07.154Z,3.00
2023-02-03T00:03:52.492Z,4.55
2023-02-03T00:06:37.971Z,14.57
2023-02-03T00:09:23.630Z,9.10
2023-02-03T00:12:09.821Z,9.98
2023-02-03T00:14:55.597Z,7.88
2023-02-03T00:17:40.924Z,14.63
2023-02-03T00:20:26.760Z,6.15
2023-02-03T00:23:12.942Z,6.93
2023-02-03T00:26:06.454Z,9.27
2023-02-03T00:28:51.768Z,8.02
2023-02-03T00:31:37.790Z,3.33
2023-02-03T00:34:28.412Z,5.80
2023-02-03T00:37:13.900Z,8.18
2023-02-03T00:39:59.301Z,5.13
2023-02-03T00:42:44.697Z,8.98
2023-02-03T00:45:30.017Z,7.78
2023-02-03T00:48:15.502Z,10.18
2023-02-03T00:51:03.021Z,10.77
2023-02-03T00:53:48.924Z,7.53
2023-02-03T00:56:34.377Z,6.35
2023-02-03T00:59:19.761Z,3.35
2023-02-03T01:02:05.721Z,10.35
2023-02-03T01:04:51.177Z,7.63
2023-02-03T01:07:36.887Z,5.63
2023-02-03T01:10:22.620Z,6.38
2023-02-03T01:13:09.065Z,9.05
2023-02-03T01:15:54.268Z,12.18
2023-02-03T01:18:40.378Z,9.25
2023-02-03T01:21:27.051Z,6.18
2023-02-03T01:24:15.138Z,8.32
2023-02-03T01:27:00.937Z,7.55
2023-02-03T01:29:46.928Z,11.80
2023-02-03T01:32:32.487Z,4.45
2023-02-03T01:35:18.059Z,7.07
2023-02-03T01:38:03.520Z,10.23
2023-02-03T01:40:50.207Z,9.52
2023-02-03T01:43:38.446Z,10.45
2023-02-03T01:46:42.559Z,6.07
2023-02-03T01:49:33.972Z,8.70
2023-02-03T01:52:19.398Z,10.55
2023-02-03T01:55:09.066Z,9.38
2023-02-03T01:58:00.030Z,16.75
2023-02-03T02:00:46.669Z,10.70
2023-02-03T02:03:38.059Z,13.00
2023-02-03T02:06:23.667Z,6.83
2023-02-03T02:09:09.603Z,5.07
2023-02-03T02:11:55.148Z,5.07
2023-02-03T02:14:43.011Z,11.27
2023-02-03T02:17:47.947Z,9.38
2023-02-03T02:21:04.304Z,9.07
2023-02-03T02:24:08.507Z,8.82
2023-02-03T02:27:06.455Z,4.82
2023-02-03T02:30:00.979Z,10.07
2023-02-03T02:32:49.325Z,7.50
2023-02-03T02:35:48.178Z,9.82
2023-02-03T02:39:00.453Z,12.10
2023-02-03T02:41:58.549Z,10.75
2023-02-03T02:45:13.371Z,11.30
2023-02-03T02:48:14.750Z,8.13
2023-02-03T02:51:04.334Z,16.23
2023-02-03T02:53:55.932Z,15.52
2023-02-03T02:56:45.641Z,9.55
2023-02-03T02:59:31.396Z,15.90
2023-02-03T03:02:17.631Z,7.25
2023-02-03T03:05:05.691Z,12.18
2023-02-03T03:08:04.491Z,6.40
2023-02-03T03:10:51.309Z,3.40
2023-02-03T03:13:44.776Z,10.02
2023-02-03T03:16:36.838Z,6.32
2023-02-03T03:19:26.687Z,6.53
2023-02-03T03:22:15.677Z,9.88
2023-02-03T03:25:12.611Z,9.70
2023-02-03T03:28:06.457Z,13.60
2023-02-03T03:30:52.493Z,11.40
2023-02-03T03:33:38.339Z,5.45
2023-02-03T03:36:42.241Z,6.53
2023-02-03T03:39:40.125Z,7.70
2023-02-03T03:42:34.494Z,3.75
2023-02-03T03:45:22.838Z,5.30
2023-02-03T03:48:28.086Z,5.53
2023-02-03T03:51:31.107Z,2.72
2023-02-03T03:54:20.208Z,6.68
2023-02-03T03:57:20.331Z,7.15
2023-02-03T04:00:09.783Z,4.82
2023-02-03T04:03:02.292Z,6.10
2023-02-03T04:05:48.075Z,4.75
2023-02-03T04:08:33.731Z,1.90
2023-02-03T04:11:37.525Z,4.97
2023-02-03T04:14:23.207Z,4.90
2023-02-03T04:17:09.752Z,5.05
2023-02-03T04:19:55.489Z,4.50
2023-02-03T04:22:40.751Z,7.78
2023-02-03T04:25:26.509Z,4.05
2023-02-03T04:28:12.243Z,1.95
2023-02-03T04:31:00.865Z,5.35
2023-02-03T04:33:46.600Z,2.65
2023-02-03T04:36:31.963Z,2.35
2023-02-03T04:39:17.240Z,4.50
2023-02-03T04:42:03.112Z,2.10
2023-02-03T04:44:48.644Z,3.53
2023-02-03T04:47:34.309Z,3.90
2023-02-03T04:50:20.116Z,5.53
2023-02-03T04:53:05.607Z,2.65
2023-02-03T04:55:50.923Z,3.70
2023-02-03T04:58:37.332Z,3.90
2023-02-03T05:01:22.782Z,1.83
2023-02-03T05:04:08.311Z,1.35
2023-02-03T05:06:53.834Z,4.85
2023-02-03T05:09:39.223Z,4.05
2023-02-03T05:12:24.516Z,1.98
2023-02-03T05:15:10.141Z,6.03
2023-02-03T05:17:55.951Z,1.50
2023-02-03T05:20:41.618Z,2.42
2023-02-03T05:23:27.193Z,6.53
2023-02-03T05:26:12.704Z,11.18
2023-02-03T05:28:58.198Z,5.07
2023-02-03T05:31:43.580Z,5.78
2023-02-03T05:34:28.933Z,2.65
2023-02-03T05:37:14.595Z,3.80
2023-02-03T05:40:19.847Z,6.82
2023-02-03T05:43:05.511Z,3.72
2023-02-03T05:45:51.088Z,6.70
2023-02-03T05:48:36.885Z,2.42
2023-02-03T05:51:22.567Z,2.38
2023-02-03T05:54:08.463Z,3.78
2023-02-03T05:56:53.925Z,3.72
2023-02-03T05:59:39.247Z,3.22
2023-02-03T06:02:24.584Z,3.20
2023-02-03T06:05:09.939Z,3.40
2023-02-03T06:07:55.303Z,3.35
2023-02-03T06:10:40.675Z,7.28
2023-02-03T06:13:26.247Z,3.63
2023-02-03T06:16:11.788Z,5.90
2023-02-03T06:18:59.778Z,11.77
2023-02-03T06:21:45.147Z,6.57
2023-02-03T06:24:30.467Z,3.88
2023-02-03T06:27:16.144Z,3.10
2023-02-03T06:30:01.792Z,1.65
2023-02-03T06:32:48.631Z,5.05
2023-02-03T06:35:34.280Z,4.97
2023-02-03T06:38:19.818Z,2.80
2023-02-03T06:41:05.132Z,5.28
2023-02-03T06:43:50.300Z,7.72
2023-02-03T06:46:35.723Z,7.85
2023-02-03T06:49:21.033Z,5.03
2023-02-03T06:52:06.335Z,6.68
2023-02-03T06:54:51.637Z,10.90
2023-02-03T06:57:44.284Z,7.97
2023-02-03T07:00:30.018Z,4.30
2023-02-03T07:03:16.156Z,4.45
2023-02-03T07:06:01.381Z,11.02
2023-02-03T07:08:46.806Z,7.40
2023-02-03T07:11:32.654Z,5.97
2023-02-03T07:14:17.989Z,7.55
2023-02-03T07:17:03.612Z,5.25
2023-02-03T07:19:49.260Z,6.57
2023-02-03T07:22:36.495Z,3.83
2023-02-03T07:25:23.302Z,4.00
2023-02-03T07:28:09.142Z,10.27
2023-02-03T07:30:54.889Z,3.70
2023-02-03T07:33:40.578Z,7.47
2023-02-03T07:36:26.067Z,6.75
2023-02-03T07:39:11.776Z,8.07
2023-02-03T07:41:57.346Z,3.70
2023-02-03T07:44:45.585Z,3.05
2023-02-03T07:47:31.291Z,10.10
2023-02-03T07:50:17.185Z,3.20
2023-02-03T07:53:03.132Z,6.93
2023-02-03T07:55:48.591Z,5.97
2023-02-03T07:58:33.981Z,2.72
2023-02-03T08:01:19.350Z,5.80
2023-02-03T08:04:05.779Z,9.52
2023-02-03T08:06:51.095Z,5.50
2023-02-03T08:09:36.569Z,6.28
2023-02-03T08:12:22.034Z,4.45
2023-02-03T08:15:08.816Z,6.45
2023-02-03T08:17:54.604Z,9.70
2023-02-03T08:20:40.415Z,7.15
2023-02-03T08:23:26.143Z,9.52
2023-02-03T08:26:11.596Z,10.23
2023-02-03T08:28:57.017Z,6.20
2023-02-03T08:31:43.077Z,10.25
2023-02-03T08:34:28.670Z,8.30
2023-02-03T08:37:16.450Z,10.57
2023-02-03T08:40:02.000Z,13.85
2023-02-03T08:42:47.662Z,5.18
2023-02-03T08:45:33.386Z,9.43
2023-02-03T08:48:19.001Z,5.68
2023-02-03T08:51:16.296Z,12.25
2023-02-03T08:54:01.716Z,10.88
2023-02-03T08:56:47.095Z,12.30
2023-02-03T08:59:36.227Z,14.32
2023-02-03T09:02:21.511Z,10.15
2023-02-03T09:05:07.628Z,12.63
2023-02-03T09:07:52.741Z,8.98
2023-02-03T09:10:38.086Z,13.45
2023-02-03T09:13:23.762Z,11.60
2023-02-03T09:16:09.450Z,8.75
2023-02-03T09:18:55.060Z,13.05
2023-02-03T09:21:45.338Z,8.27
2023-02-03T09:24:31.524Z,12.55
2023-02-03T09:27:16.905Z,9.60
2023-02-03T09:30:02.360Z,11.73
2023-02-03T09:32:54.167Z,11.65
2023-02-03T09:38:27.537Z,6.55
2023-02-03T09:41:31.721Z,8.57
2023-02-03T09:44:49.591Z,8.80
2023-02-03T09:47:40.036Z,11.60
2023-02-03T09:50:29.798Z,6.43
2023-02-03T09:53:45.527Z,11.20
2023-02-03T09:56:34.879Z,13.32
2023-02-03T09:59:20.128Z,11.18
2023-02-03T10:02:44.174Z,10.32
2023-02-03T10:05:32.487Z,9.63
2023-02-03T10:08:32.995Z,7.93
2023-02-03T10:11:35.874Z,5.30
2023-02-03T10:14:58.856Z,14.20
2023-02-03T10:17:53.248Z,8.10
2023-02-03T10:20:50.341Z,11.35
2023-02-03T10:23:39.430Z,9.93
2023-02-03T10:26:28.090Z,6.13
2023-02-03T10:29:25.318Z,8.20
2023-02-03T10:32:12.701Z,12.32
2023-02-03T10:34:58.420Z,3.97
2023-02-03T10:37:51.951Z,6.30
2023-02-03T10:40:37.585Z,5.90
2023-02-03T10:43:41.544Z,6.60
2023-02-03T10:46:33.879Z,6.32
2023-02-03T10:49:20.644Z,10.82
2023-02-03T10:52:06.324Z,4.95
2023-02-03T10:54:51.568Z,3.72
2023-02-03T10:57:39.406Z,10.45
2023-02-03T11:00:34.362Z,3.55
2023-02-03T11:03:29.596Z,7.43
2023-02-03T11:06:16.866Z,3.72
2023-02-03T11:09:02.939Z,7.57
2023-02-03T11:11:48.618Z,7.53
2023-02-03T11:14:39.258Z,5.93
2023-02-03T11:17:27.769Z,5.75
2023-02-03T11:20:15.987Z,4.03
2023-02-03T11:23:04.420Z,8.57
2023-02-03T11:25:49.762Z,5.82
2023-02-03T11:28:36.283Z,7.78
2023-02-03T11:31:28.414Z,7.93
2023-02-03T11:34:26.103Z,4.93
2023-02-03T11:37:29.801Z,9.95
2023-02-03T11:40:15.421Z,9.73
2023-02-03T11:43:04.375Z,11.80
2023-02-03T11:45:53.192Z,6.47
2023-02-03T11:49:04.160Z,5.63
2023-02-03T11:52:12.719Z,7.75
2023-02-03T11:55:04.362Z,7.45
2023-02-03T11:57:53.053Z,3.60
2023-02-03T12:01:01.488Z,7.63
2023-02-03T12:03:52.973Z,1.50
2023-02-03T12:06:51.225Z,1.60
2023-02-03T12:10:01.437Z,5.03
2023-02-03T12:12:56.009Z,5.15
2023-02-03T12:16:00.460Z,3.42
2023-02-03T12:18:48.980Z,7.88
2023-02-03T12:21:37.401Z,6.57
2023-02-03T12:24:38.181Z,6.35
2023-02-03T12:27:48.391Z,8.80
2023-02-03T12:30:46.798Z,4.78
2023-02-03T12:33:38.605Z,2.95
2023-02-03T12:36:33.907Z,5.07
2023-02-03T12:39:52.567Z,4.78
2023-02-03T12:42:54.549Z,5.88
2023-02-03T12:45:41.058Z,8.57
2023-02-03T12:48:43.478Z,2.58
2023-02-03T12:51:56.103Z,4.07
2023-02-03T12:55:03.500Z,8.90
2023-02-03T12:58:03.803Z,5.13
2023-02-03T13:00:59.773Z,10.68
2023-02-03T13:03:50.940Z,1.65
2023-02-03T13:07:02.758Z,2.45
2023-02-03T13:10:33.524Z,2.22
2023-02-03T13:13:28.335Z,9.20
2023-02-03T13:16:17.162Z,1.13
2023-02-03T13:19:08.236Z,8.70
2023-02-03T13:21:53.559Z,4.57
2023-02-03T13:24:43.971Z,4.43
2023-02-03T13:28:04.748Z,3.30
2023-02-03T13:31:33.458Z,8.13
2023-02-03T13:34:57.326Z,2.70
2023-02-03T13:38:04.345Z,4.05
2023-02-03T13:40:54.397Z,1.98
2023-02-03T13:43:46.887Z,3.33
2023-02-03T13:46:35.856Z,8.43
2023-02-03T13:49:33.295Z,2.85
2023-02-03T13:52:47.124Z,3.95
2023-02-03T13:55:41.212Z,2.42
2023-02-03T13:58:37.679Z,2.80
2023-02-03T14:01:34.072Z,1.95
2023-02-03T14:04:25.804Z,2.20
2023-02-03T14:07:36.667Z,0.50
2023-02-03T14:10:26.273Z,0.95
2023-02-03T14:13:21.535Z,2.03
2023-02-03T14:16:26.002Z,6.43
2023-02-03T14:19:33.091Z,5.53
2023-02-03T14:22:18.901Z,3.15
2023-02-03T14:25:06.965Z,0.68
2023-02-03T14:28:15.206Z,2.83
2023-02-03T14:31:07.262Z,3.65
2023-02-03T14:34:05.950Z,2.05
2023-02-03T14:36:55.382Z,2.72
2023-02-03T14:39:55.982Z,2.65
2023-02-03T14:43:04.832Z,4.60
2023-02-03T14:46:13.967Z,5.65
2023-02-03T14:49:08.552Z,7.05
2023-02-03T14:52:04.456Z,3.15
2023-02-03T14:55:02.233Z,1.67
2023-02-03T14:57:49.829Z,2.05
2023-02-03T15:00:36.731Z,1.38
2023-02-03T15:03:27.993Z,2.58
2023-02-03T15:06:40.942Z,4.00
2023-02-03T15:09:43.340Z,1.60
2023-02-03T15:12:37.963Z,1.95
2023-02-03T15:15:29.665Z,4.32
2023-02-03T15:18:29.002Z,2.92
2023-02-03T15:21:20.349Z,6.32
2023-02-03T15:24:19.147Z,1.95
2023-02-03T15:27:04.925Z,2.30
2023-02-03T15:29:50.469Z,1.20
2023-02-03T15:32:41.473Z,2.30
2023-02-03T15:35:30.886Z,1.60
2023-02-03T15:38:26.072Z,3.88
2023-02-03T15:41:22.438Z,3.20
2023-02-03T15:44:32.480Z,2.40
2023-02-03T15:47:31.363Z,1.83
2023-02-03T15:50:36.539Z,6.45
2023-02-03T15:53:41.091Z,4.13
2023-02-03T15:56:37.869Z,7.18
2023-02-03T15:59:23.416Z,3.53
2023-02-03T16:02:14.683Z,1.88
2023-02-03T16:05:34.024Z,7.90
2023-02-03T16:08:37.046Z,2.35
2023-02-03T16:11:25.502Z,3.35
2023-02-03T16:14:12.111Z,5.13
2023-02-03T16:17:04.977Z,4.38
2023-02-03T16:19:52.745Z,2.08
2023-02-03T16:22:41.254Z,1.80
2023-02-03T16:25:30.175Z,7.75
2023-02-03T16:28:36.491Z,3.67
2023-02-03T16:31:40.684Z,4.10
2023-02-03T16:34:44.668Z,13.82
2023-02-03T16:38:00.750Z,8.30
2023-02-03T16:41:05.987Z,4.35
2023-02-03T16:44:10.146Z,11.43
2023-02-03T16:47:14.167Z,3.72
2023-02-03T16:50:32.772Z,2.80
2023-02-03T16:53:30.264Z,3.13
2023-02-03T16:56:18.633Z,15.15
2023-02-03T16:59:04.239Z,19.35
2023-02-03T17:01:49.606Z,12.60
2023-02-03T17:04:35.204Z,4.68
2023-02-03T17:07:20.900Z,4.30
2023-02-03T17:10:06.581Z,42.40
2023-02-03T17:12:53.018Z,10.55
2023-02-03T17:15:43.583Z,39.30
2023-02-03T17:18:31.546Z,36.05
2023-02-03T17:21:25.891Z,8.18
2023-02-03T17:24:12.378Z,27.23
2023-02-03T17:26:58.906Z,40.42
2023-02-03T17:29:44.595Z,11.32
2023-02-03T17:32:29.886Z,12.68
2023-02-03T17:35:15.463Z,4.80
2023-02-03T17:38:00.847Z,4.50
2023-02-03T17:55:49.957Z,6.03
2023-02-03T17:58:35.388Z,17.80
2023-02-03T18:01:20.747Z,34.05
2023-02-03T18:04:08.893Z,11.00
2023-02-03T18:06:54.603Z,24.23
2023-02-03T18:09:40.185Z,21.48
2023-02-03T18:12:25.768Z,10.35
2023-02-03T18:15:11.295Z,4.22
2023-02-03T18:17:56.642Z,7.55
2023-02-03T18:20:41.924Z,13.05
2023-02-03T18:23:29.764Z,20.73
2023-02-03T18:26:15.281Z,34.92
2023-02-03T18:29:01.775Z,34.53
2023-02-03T18:31:48.141Z,32.53
2023-02-03T18:34:33.391Z,30.38
2023-02-03T18:37:18.678Z,28.75
2023-02-03T18:40:04.411Z,39.15
2023-02-03T18:42:49.689Z,32.70
2023-02-03T18:45:38.077Z,34.88
2023-02-03T18:48:23.437Z,97.40
2023-02-03T18:51:14.623Z,62.25
2023-02-03T18:54:00.613Z,93.35
2023-02-03T18:56:46.507Z,84.40
2023-02-03T18:59:31.810Z,54.42
2023-02-03T19:02:17.167Z,69.43
2023-02-03T19:05:02.782Z,68.65
2023-02-03T19:07:48.415Z,60.92
2023-02-03T19:10:33.931Z,59.35
2023-02-03T19:13:20.243Z,61.80
2023-02-03T19:16:06.209Z,46.38
2023-02-03T19:18:51.663Z,58.13
2023-02-03T19:21:36.968Z,56.22
2023-02-03T19:24:22.241Z,50.78
2023-02-03T19:27:07.628Z,59.78
2023-02-03T19:29:52.936Z,54.80
2023-02-03T19:32:38.364Z,108.20
2023-02-03T19:35:23.742Z,74.90
2023-02-03T19:38:09.447Z,84.72
2023-02-03T19:40:55.407Z,55.55
2023-02-03T19:43:40.702Z,49.72
2023-02-03T19:46:27.444Z,53.72
2023-02-03T19:49:14.898Z,61.20
2023-02-03T19:52:00.480Z,36.25
2023-02-03T19:54:45.942Z,49.47
2023-02-03T19:57:31.215Z,36.10
2023-02-03T20:00:16.960Z,58.67
2023-02-03T20:03:04.494Z,107.10
2023-02-03T20:05:51.045Z,81.95
2023-02-03T20:08:36.884Z,28.23
2023-02-03T20:11:22.764Z,20.52
2023-02-03T20:14:08.380Z,42.97
2023-02-03T20:16:53.763Z,44.30
2023-02-03T20:19:39.172Z,34.08
2023-02-03T20:22:24.609Z,34.63
2023-02-03T20:25:09.948Z,16.75
2023-02-03T20:27:57.212Z,12.20
2023-02-03T20:30:43.079Z,13.20
2023-02-03T20:33:30.340Z,13.07
2023-02-03T20:36:15.593Z,15.70
2023-02-03T20:39:01.145Z,23.10
2023-02-03T20:41:46.413Z,16.40
2023-02-03T20:44:32.445Z,13.25
2023-02-03T20:47:19.174Z,9.90
2023-02-03T20:50:11.136Z,10.38
2023-02-03T20:52:56.651Z,10.38
2023-02-03T20:55:42.202Z,12.55
2023-02-03T20:58:31.524Z,7.70
2023-02-03T21:01:20.670Z,9.98
2023-02-03T21:04:35.849Z,7.95
2023-02-03T21:07:23.114Z,8.15
2023-02-03T21:10:20.182Z,5.57
2023-02-03T21:13:26.295Z,33.63
2023-02-03T21:16:14.850Z,14.15
2023-02-03T21:19:02.800Z,11.32
2023-02-03T21:21:50.910Z,6.60
2023-02-03T21:24:37.986Z,9.80
2023-02-03T21:27:26.792Z,17.30
2023-02-03T21:30:23.370Z,9.32
2023-02-03T21:33:25.900Z,11.38
2023-02-03T21:36:19.475Z,16.95
2023-02-03T21:39:30.402Z,11.15
2023-02-03T21:42:43.212Z,13.02
2023-02-03T21:48:40.514Z,6.45
2023-02-03T21:51:39.570Z,8.45
2023-02-03T21:54:32.976Z,18.25
2023-02-03T21:57:20.687Z,12.93
2023-02-03T22:00:34.970Z,54.85
2023-02-03T22:03:43.550Z,36.13
2023-02-03T22:06:38.555Z,6.93
2023-02-03T22:09:25.995Z,8.38
2023-02-03T22:12:11.294Z,13.32
2023-02-03T22:14:56.596Z,8.63
2023-02-03T22:17:42.014Z,4.70
2023-02-03T22:20:27.694Z,3.92
2023-02-03T22:23:13.360Z,3.92
2023-02-03T22:25:58.826Z,3.20
2023-02-03T22:28:45.125Z,4.35
2023-02-03T22:31:30.781Z,2.50
2023-02-03T22:34:16.453Z,1.33
2023-02-03T22:37:01.816Z,2.03
2023-02-03T22:39:47.135Z,3.17
2023-02-03T22:42:32.838Z,4.75
2023-02-03T22:45:19.739Z,3.40
2023-02-03T22:48:05.550Z,2.47
2023-02-03T22:50:50.989Z,1.95
2023-02-03T22:53:36.623Z,1.77
2023-02-03T22:56:23.585Z,3.50
2023-02-03T22:59:09.665Z,4.00
2023-02-03T23:01:55.038Z,5.43
2023-02-03T23:04:40.592Z,5.25
2023-02-03T23:07:25.999Z,4.55
2023-02-03T23:10:13.656Z,1.70
2023-02-03T23:13:00.905Z,3.70
2023-02-03T23:15:46.598Z,4.07
2023-02-03T23:18:31.980Z,2.50
2023-02-03T23:21:17.528Z,1.35
2023-02-03T23:24:03.207Z,2.05
2023-02-03T23:26:48.586Z,2.72
2023-02-03T23:29:37.513Z,2.78
2023-02-03T23:32:22.890Z,1.13
2023-02-03T23:35:28.037Z,4.43
2023-02-03T23:38:15.309Z,1.08
2023-02-03T23:41:00.717Z,2.75
2023-02-03T23:43:46.025Z,2.75
2023-02-03T23:46:31.496Z,0.93
2023-02-03T23:49:16.833Z,6.20
2023-02-03T23:52:02.468Z,2.38
2023-02-03T23:54:47.933Z,1.50
2023-02-03T23:57:33.715Z,2.42
